Hauptseite
METAR-TAF:

METAR-TAF

Flughäfen :

Flughafen Marsa Alam

Marsa Alam, Ägypten

Breite: 25-33-25N, Länge: 34-35-01E, Höhe: 77 m

Beobachtung

Neuester Wetterbericht von vor 1 Stunde und 33 Minuten, um 13:00 UTC
Wind 15 kt aus Nord
Temperatur 32°C
Luftfeuchtigkeit 26%
Luftdruck 1010 hPa
Sichtweite 10 km oder mehr
keine Wolken unter 1500 m und keine Kumulonimbus oder Gewitterwolken

METAR: HEMA 231300Z 36015KT CAVOK 32/10 Q1010 NOSIG

Zeit: 16:33 (14:33 UTC)

Prognose

Neuester Wetterbericht von vor 3 Stunden und 33 Minuten, um 11:00 UTC
Gültige Prognose vom 23 um 12 UTC bis 24 um 18 UTC
Wind 15 kt aus Nord
Sichtweite 10 km oder mehr
keine Wolken unter 1500 m und keine Kumulonimbus oder Gewitterwolken

TAF: HEMA 231100Z 2312/2418 36015KT CAVOK

Wetterbeobachtungen und Prognosen von mehr als 4000 Flughäfen (METAR und TAF Bericht).

Die verfügbaren Stationen werden durch gelbe und rote Markierungen auf der Karte dargestellt.

Führen Sie die Maus auf sie, um den Namen der Station zu sehen.

Darauf klicken, um die Beobachtung von Wetterbeobachtungen und Prognosen zu sehen.

Um die Karte zu ändern : klicken Sie auf den grünen Tasten mit einem schwarzen Kreuz Zum Vergrößern, auf den grünen Button mit einem Gedankenstrich zu verkleinern, oder auf die grünen Pfeile für benachbarte Karten.


METAR-TAF: